Time;durP1;ratioP1;P1;durP2;ratioP2;P2;SDS_P1;SDS_P2;PMS_P1;PMS_P2;Temp;Humidity;BMP_temperature;BMP_pressure;BME280_temperature;BME280_humidity;BME280_pressure;Samples;Min_cycle;Max_cycle;Signal;HPM_P1;HPM_P2
2023/05/24 00:00:29;;;;;;;12.93;2.77;;;9.30;1.00;;;;;;5117653;28;20611;-80
2023/05/24 00:02:56;;;;;;;12.00;2.30;;;9.30;1.00;;;;;;5117443;28;20201;-78
2023/05/24 00:05:22;;;;;;;9.43;2.37;;;9.30;1.00;;;;;;5116206;28;20182;-78
2023/05/24 00:07:48;;;;;;;4.40;1.57;;;9.20;1.00;;;;;;5116680;28;20184;-78
2023/05/24 00:10:13;;;;;;;6.30;1.77;;;9.20;1.00;;;;;;5116441;28;20245;-78
2023/05/24 00:12:39;;;;;;;8.00;2.10;;;9.10;1.00;;;;;;5116436;28;20177;-77
2023/05/24 00:15:05;;;;;;;7.13;1.70;;;9.10;1.00;;;;;;5115179;28;20620;-77
2023/05/24 00:17:31;;;;;;;6.17;1.97;;;9.10;1.00;;;;;;5116470;28;20306;-77
2023/05/24 00:19:56;;;;;;;13.70;2.53;;;9.00;1.00;;;;;;5115828;28;20201;-78
2023/05/24 00:22:22;;;;;;;14.40;2.37;;;9.00;1.00;;;;;;5114624;28;20288;-78
2023/05/24 00:24:48;;;;;;;5.40;1.97;;;9.00;1.00;;;;;;5115791;28;20666;-78
2023/05/24 00:27:14;;;;;;;6.93;2.23;;;8.90;1.00;;;;;;5116561;28;20170;-80
2023/05/24 00:29:39;;;;;;;6.97;2.13;;;8.90;21.00;;;;;;5117024;28;20564;-78
2023/05/24 00:32:05;;;;;;;10.30;2.10;;;8.90;15.40;;;;;;5117745;28;20188;-79
2023/05/24 00:34:31;;;;;;;6.30;2.27;;;8.90;97.50;;;;;;5115991;28;20166;-78
2023/05/24 00:36:56;;;;;;;5.67;2.00;;;8.80;99.90;;;;;;5115311;28;20184;-78
2023/05/24 00:39:22;;;;;;;8.67;2.00;;;8.80;76.40;;;;;;5113871;28;20205;-78
2023/05/24 00:41:48;;;;;;;10.27;2.17;;;8.80;74.10;;;;;;5114131;28;20554;-77
2023/05/24 00:44:13;;;;;;;6.27;1.90;;;8.80;68.20;;;;;;5113941;28;20174;-78
2023/05/24 00:46:40;;;;;;;7.60;2.43;;;8.70;73.70;;;;;;5113978;28;20185;-78
2023/05/24 00:49:06;;;;;;;5.57;1.90;;;8.70;87.70;;;;;;5115402;28;20568;-78
2023/05/24 00:51:32;;;;;;;9.13;2.17;;;8.70;99.90;;;;;;5115721;28;20174;-78
2023/05/24 00:53:58;;;;;;;8.37;2.00;;;8.70;99.90;;;;;;5113373;28;20324;-77
2023/05/24 00:56:25;;;;;;;7.30;2.17;;;8.60;99.90;;;;;;5116044;28;20292;-80
2023/05/24 00:58:53;;;;;;;10.33;2.27;;;8.60;99.90;;;;;;5117945;28;20205;-78
2023/05/24 01:01:19;;;;;;;9.77;2.17;;;8.50;99.90;;;;;;5114922;28;20638;-79
2023/05/24 01:03:45;;;;;;;14.00;3.03;;;8.50;99.90;;;;;;5116060;28;20184;-79
2023/05/24 01:06:12;;;;;;;8.70;2.27;;;8.40;99.90;;;;;;5115608;28;20246;-77
2023/05/24 01:08:37;;;;;;;8.77;2.33;;;8.40;99.90;;;;;;5113145;28;20187;-78
2023/05/24 01:11:21;;;;;;;9.03;2.53;;;8.40;99.90;;;;;;5114840;27;20248;-78
2023/05/24 01:14:02;;;;;;;8.57;2.20;;;8.40;99.90;;;;;;5116675;28;20205;-79
2023/05/24 01:16:50;;;;;;;8.57;2.00;;;8.30;99.90;;;;;;5115664;28;20189;-79
2023/05/24 01:19:48;;;;;;;9.30;2.20;;;8.30;99.90;;;;;;5117366;28;20185;-79
2023/05/24 01:22:59;;;;;;;11.77;2.47;;;8.30;99.90;;;;;;5118445;28;20181;-79
2023/05/24 01:25:52;;;;;;;8.37;2.10;;;8.20;99.90;;;;;;5117675;28;20313;-79
2023/05/24 01:28:18;;;;;;;6.50;1.77;;;8.10;99.90;;;;;;5113853;28;20166;-77
2023/05/24 01:30:44;;;;;;;7.97;2.27;;;8.10;99.90;;;;;;5113488;28;20238;-76
2023/05/24 01:33:10;;;;;;;9.57;2.33;;;8.00;99.90;;;;;;5116527;28;20184;-77
2023/05/24 01:35:39;;;;;;;10.07;1.60;;;8.00;99.90;;;;;;5127783;28;20193;-78
2023/05/24 01:38:09;;;;;;;5.93;1.70;;;8.00;99.90;;;;;;5113243;28;20696;-77
2023/05/24 01:40:37;;;;;;;7.40;2.87;;;8.00;99.90;;;;;;5115280;28;20223;-77
2023/05/24 01:43:36;;;;;;;9.57;2.20;;;8.00;99.90;;;;;;5111977;28;20222;-77
2023/05/24 01:46:24;;;;;;;8.67;2.00;;;7.90;99.90;;;;;;5114919;28;20191;-77
2023/05/24 01:48:56;;;;;;;8.40;2.20;;;7.70;99.90;;;;;;5113260;28;20218;-77
2023/05/24 01:51:24;;;;;;;7.60;2.30;;;7.70;99.90;;;;;;5117338;28;20173;-79
2023/05/24 01:53:51;;;;;;;6.97;1.97;;;7.60;99.90;;;;;;5119849;28;20177;-79
2023/05/24 01:56:19;;;;;;;5.23;1.93;;;7.60;99.90;;;;;;5120597;28;20208;-77
2023/05/24 01:58:46;;;;;;;10.20;2.40;;;7.60;99.90;;;;;;5119504;28;20177;-79
2023/05/24 02:01:12;;;;;;;8.83;2.60;;;7.60;99.90;;;;;;5119230;28;20192;-79
2023/05/24 02:03:39;;;;;;;8.60;2.50;;;7.50;99.90;;;;;;5119894;28;20621;-79
2023/05/24 02:06:05;;;;;;;6.80;2.20;;;7.50;99.90;;;;;;5120776;28;20236;-79
2023/05/24 02:08:31;;;;;;;7.97;2.30;;;7.50;99.90;;;;;;5120127;28;20659;-79
2023/05/24 02:10:56;;;;;;;7.73;2.07;;;7.40;99.90;;;;;;5119954;28;20253;-79
2023/05/24 02:13:22;;;;;;;11.27;2.43;;;7.40;99.90;;;;;;5117282;28;20166;-77
2023/05/24 02:15:47;;;;;;;6.03;2.33;;;7.40;99.90;;;;;;5115131;28;20189;-77
2023/05/24 02:18:13;;;;;;;9.33;2.20;;;7.30;99.90;;;;;;5115677;28;20193;-77
2023/05/24 02:20:39;;;;;;;7.83;2.37;;;7.30;99.90;;;;;;5114997;28;20197;-77
2023/05/24 02:23:05;;;;;;;8.93;2.67;;;7.30;99.90;;;;;;5116233;28;20181;-79
2023/05/24 02:25:32;;;;;;;8.00;2.60;;;7.30;99.90;;;;;;5119543;28;20192;-78
2023/05/24 02:27:58;;;;;;;7.10;2.27;;;7.20;99.90;;;;;;5120039;28;20215;-77
2023/05/24 02:30:24;;;;;;;7.00;2.33;;;7.20;99.90;;;;;;5116702;28;20173;-77
2023/05/24 02:32:49;;;;;;;8.53;2.10;;;7.20;99.90;;;;;;5116054;28;20536;-77
2023/05/24 02:35:15;;;;;;;5.30;2.37;;;7.10;99.90;;;;;;5114711;28;20680;-77
2023/05/24 02:37:41;;;;;;;6.63;2.10;;;7.00;99.90;;;;;;5116130;28;20268;-77
2023/05/24 02:40:07;;;;;;;5.80;2.20;;;7.00;99.90;;;;;;5115880;28;20208;-77
2023/05/24 02:42:33;;;;;;;7.23;1.77;;;7.00;99.90;;;;;;5113190;28;20182;-77
2023/05/24 02:44:59;;;;;;;6.10;2.23;;;7.00;99.90;;;;;;5115951;28;20192;-77
2023/05/24 02:47:25;;;;;;;12.07;2.50;;;7.00;99.90;;;;;;5114281;28;20594;-77
2023/05/24 02:49:52;;;;;;;7.60;2.30;;;7.00;99.90;;;;;;5115992;28;20626;-77
2023/05/24 02:52:20;;;;;;;11.17;2.50;;;6.90;99.90;;;;;;5114458;28;20174;-77
2023/05/24 02:54:46;;;;;;;7.50;2.17;;;6.90;99.90;;;;;;5115502;28;20181;-76
2023/05/24 02:57:12;;;;;;;8.07;2.60;;;6.90;99.90;;;;;;5115417;28;20192;-77
2023/05/24 02:59:37;;;;;;;6.30;2.00;;;6.90;99.90;;;;;;5115923;28;20201;-77
2023/05/24 03:02:03;;;;;;;6.87;1.97;;;6.90;99.90;;;;;;5114300;28;20169;-77
2023/05/24 03:04:28;;;;;;;9.90;2.27;;;6.90;99.90;;;;;;5115304;28;20162;-77
2023/05/24 03:06:54;;;;;;;9.67;2.60;;;6.90;99.90;;;;;;5114212;28;20176;-77
2023/05/24 03:09:19;;;;;;;4.73;2.07;;;6.80;99.90;;;;;;5115319;28;20227;-77
2023/05/24 03:11:45;;;;;;;7.23;1.80;;;6.80;99.90;;;;;;5113753;28;20178;-77
2023/05/24 03:14:10;;;;;;;6.60;2.13;;;6.70;99.90;;;;;;5113858;28;20252;-77
2023/05/24 03:16:36;;;;;;;5.17;2.57;;;6.70;99.90;;;;;;5113505;28;20562;-77
2023/05/24 03:19:03;;;;;;;8.40;2.03;;;6.70;99.90;;;;;;5113557;28;20208;-77
2023/05/24 03:21:28;;;;;;;8.17;2.40;;;6.70;99.90;;;;;;5113738;28;20251;-77
2023/05/24 03:23:54;;;;;;;4.73;2.40;;;6.60;99.90;;;;;;5114652;28;20687;-77
2023/05/24 03:26:20;;;;;;;9.93;2.80;;;6.60;99.90;;;;;;5114816;28;20185;-76
2023/05/24 03:28:46;;;;;;;7.47;1.90;;;6.50;99.90;;;;;;5113530;28;20179;-77
2023/05/24 03:31:12;;;;;;;7.40;2.13;;;6.50;99.90;;;;;;5114759;28;20162;-77
2023/05/24 03:33:38;;;;;;;11.50;2.30;;;6.50;99.90;;;;;;5113398;28;20273;-77
2023/05/24 03:36:05;;;;;;;5.27;2.50;;;6.40;99.90;;;;;;5114659;28;20686;-77
2023/05/24 03:38:32;;;;;;;5.40;2.00;;;6.50;99.90;;;;;;5113250;28;20499;-76
2023/05/24 03:40:58;;;;;;;8.27;2.87;;;6.40;99.90;;;;;;5114741;28;20174;-77
2023/05/24 03:43:23;;;;;;;6.27;2.33;;;6.40;99.90;;;;;;5113042;28;20188;-76
2023/05/24 03:45:50;;;;;;;5.30;2.00;;;6.30;99.90;;;;;;5114275;28;20218;-76
2023/05/24 03:48:15;;;;;;;10.30;2.53;;;6.30;99.90;;;;;;5114448;28;20170;-76
2023/05/24 03:50:41;;;;;;;7.57;2.40;;;6.30;99.90;;;;;;5114385;27;20178;-76
2023/05/24 03:53:07;;;;;;;9.47;2.40;;;6.30;99.90;;;;;;5114222;28;20253;-77
2023/05/24 03:55:32;;;;;;;7.97;2.00;;;6.30;99.90;;;;;;5114444;28;20201;-77
2023/05/24 03:57:58;;;;;;;9.27;2.30;;;6.30;99.90;;;;;;5117071;28;20655;-79
2023/05/24 04:00:23;;;;;;;5.93;2.20;;;6.30;99.90;;;;;;5116521;28;20205;-79
2023/05/24 04:02:49;;;;;;;9.00;2.67;;;6.30;99.90;;;;;;5117051;28;20174;-77
2023/05/24 04:05:15;;;;;;;4.77;2.20;;;6.20;99.90;;;;;;5115314;28;20213;-78
2023/05/24 04:07:42;;;;;;;10.40;2.20;;;6.20;99.90;;;;;;5115059;28;20169;-77
2023/05/24 04:10:08;;;;;;;8.17;2.30;;;6.30;99.90;;;;;;5114854;28;20559;-78
2023/05/24 04:12:34;;;;;;;5.20;2.17;;;6.20;99.90;;;;;;5113975;28;20174;-80
2023/05/24 04:15:00;;;;;;;6.43;2.23;;;6.20;99.90;;;;;;5114632;28;20197;-78
2023/05/24 04:17:28;;;;;;;6.40;2.40;;;6.30;99.90;;;;;;5114647;28;20188;-78
2023/05/24 04:19:53;;;;;;;3.33;1.83;;;6.30;99.90;;;;;;5117058;28;20193;-77
2023/05/24 04:22:19;;;;;;;2.93;2.03;;;6.30;99.90;;;;;;5116357;28;20181;-77
2023/05/24 04:24:45;;;;;;;7.23;2.03;;;6.30;99.90;;;;;;5117043;28;20219;-78
2023/05/24 04:27:10;;;;;;;9.00;2.70;;;6.20;99.90;;;;;;5115865;28;20226;-78
2023/05/24 04:29:38;;;;;;;7.30;2.70;;;6.30;99.90;;;;;;5114178;28;20192;-77
2023/05/24 04:32:05;;;;;;;11.07;2.40;;;6.20;99.90;;;;;;5117849;28;20193;-78
2023/05/24 04:34:32;;;;;;;4.43;1.80;;;6.30;99.90;;;;;;5115599;28;20576;-81
2023/05/24 04:36:59;;;;;;;7.30;1.73;;;6.20;99.90;;;;;;5116259;28;20352;-77
2023/05/24 04:39:25;;;;;;;9.53;2.07;;;6.30;99.90;;;;;;5115223;28;20202;-77
2023/05/24 04:41:51;;;;;;;4.33;2.00;;;6.30;99.90;;;;;;5114720;28;20256;-78
2023/05/24 04:44:17;;;;;;;7.53;2.57;;;6.40;99.90;;;;;;5114132;28;20245;-78
2023/05/24 04:46:43;;;;;;;6.87;2.30;;;6.50;99.90;;;;;;5114253;28;20658;-78
2023/05/24 04:49:09;;;;;;;8.27;2.17;;;6.50;99.90;;;;;;5113069;28;20178;-76
2023/05/24 04:51:37;;;;;;;6.07;2.33;;;6.60;99.90;;;;;;5112387;28;20174;-77
2023/05/24 04:54:07;;;;;;;10.53;2.83;;;6.60;99.90;;;;;;5113813;28;20185;-79
2023/05/24 04:56:37;;;;;;;7.77;2.50;;;6.70;99.90;;;;;;5117166;28;20692;-79
2023/05/24 04:59:04;;;;;;;5.43;2.20;;;6.70;99.90;;;;;;5116390;28;20684;-78
2023/05/24 05:01:30;;;;;;;6.50;2.20;;;6.80;99.90;;;;;;5118213;28;20170;-78
2023/05/24 05:03:56;;;;;;;5.70;2.73;;;6.90;99.90;;;;;;5115170;28;20594;-77
2023/05/24 05:06:21;;;;;;;8.10;2.83;;;7.00;99.90;;;;;;5113804;28;20265;-77
2023/05/24 05:08:47;;;;;;;5.03;2.40;;;7.10;99.90;;;;;;5112472;28;20181;-77
2023/05/24 05:11:13;;;;;;;6.27;2.60;;;7.20;99.90;;;;;;5114303;28;20669;-77
2023/05/24 05:13:39;;;;;;;10.20;2.93;;;7.30;99.90;;;;;;5114164;28;20634;-77
2023/05/24 05:16:05;;;;;;;9.90;2.83;;;7.40;99.90;;;;;;5113652;28;20243;-77
2023/05/24 05:18:31;;;;;;;11.73;3.17;;;7.40;99.90;;;;;;5113792;28;20188;-77
2023/05/24 05:20:57;;;;;;;8.17;2.90;;;7.50;99.90;;;;;;5113499;28;20228;-76
2023/05/24 05:23:22;;;;;;;10.23;2.97;;;7.60;99.90;;;;;;5112064;28;20193;-77
2023/05/24 05:25:48;;;;;;;14.90;4.20;;;7.70;99.90;;;;;;5111354;28;20190;-77
2023/05/24 05:28:13;;;;;;;16.67;3.67;;;7.70;99.90;;;;;;5113588;28;20174;-77
2023/05/24 05:30:39;;;;;;;17.30;4.00;;;7.80;99.90;;;;;;5112948;28;20539;-77
2023/05/24 05:33:04;;;;;;;17.07;4.30;;;7.90;99.90;;;;;;5111309;28;20177;-76
2023/05/24 05:35:31;;;;;;;11.97;3.53;;;8.00;99.90;;;;;;5113253;28;20197;-75
2023/05/24 05:37:57;;;;;;;12.53;3.43;;;8.10;99.90;;;;;;5114789;28;20180;-79
2023/05/24 05:40:22;;;;;;;11.30;3.70;;;8.20;99.90;;;;;;5117917;28;20213;-79
2023/05/24 05:42:48;;;;;;;13.90;4.10;;;8.30;99.90;;;;;;5118169;28;20173;-79
2023/05/24 05:45:14;;;;;;;12.37;3.90;;;8.40;99.90;;;;;;5117655;28;20565;-78
2023/05/24 05:47:40;;;;;;;18.73;4.20;;;8.40;99.90;;;;;;5120851;28;20181;-79
2023/05/24 05:50:06;;;;;;;10.80;3.77;;;8.50;99.90;;;;;;5120610;28;20174;-79
2023/05/24 05:52:32;;;;;;;14.10;4.00;;;8.60;99.90;;;;;;5118378;28;20173;-78
2023/05/24 05:54:59;;;;;;;13.03;4.50;;;8.70;99.90;;;;;;5117431;28;20251;-78
2023/05/24 05:57:24;;;;;;;16.47;4.40;;;8.80;99.90;;;;;;5119737;28;20161;-79
2023/05/24 05:59:50;;;;;;;15.33;4.13;;;8.90;99.90;;;;;;5117797;28;20205;-79
2023/05/24 06:02:17;;;;;;;18.83;4.10;;;9.00;99.90;;;;;;5118942;28;20177;-78
2023/05/24 06:04:44;;;;;;;16.10;5.07;;;9.00;99.90;;;;;;5119995;28;20217;-79
2023/05/24 06:07:09;;;;;;;18.03;4.97;;;9.10;99.90;;;;;;5116226;28;20166;-77
2023/05/24 06:09:34;;;;;;;17.70;4.57;;;9.20;99.90;;;;;;5111933;28;20702;-77
2023/05/24 06:12:00;;;;;;;12.37;4.40;;;9.20;99.90;;;;;;5113283;28;20177;-77
2023/05/24 06:14:25;;;;;;;12.77;3.87;;;9.30;99.90;;;;;;5112278;28;20251;-77
2023/05/24 06:16:53;;;;;;;12.70;4.30;;;9.40;99.90;;;;;;5112760;28;20715;-77
2023/05/24 06:19:19;;;;;;;11.10;3.90;;;9.40;99.90;;;;;;5113898;28;20219;-77
2023/05/24 06:21:46;;;;;;;15.90;4.80;;;9.50;99.90;;;;;;5112042;28;20170;-77
2023/05/24 06:24:21;;;;;;;13.57;4.60;;;9.50;99.90;;;;;;5112621;28;20278;-77
2023/05/24 06:26:49;;;;;;;18.60;5.40;;;9.60;99.90;;;;;;5114056;28;20182;-77
2023/05/24 06:29:14;;;;;;;11.63;4.20;;;9.70;99.90;;;;;;5112411;28;20623;-77
2023/05/24 06:31:41;;;;;;;11.30;4.93;;;9.70;99.90;;;;;;5112248;28;20181;-77
2023/05/24 06:34:06;;;;;;;17.03;4.80;;;9.80;99.90;;;;;;5112716;28;20523;-77
2023/05/24 06:36:40;;;;;;;14.67;5.00;;;9.80;99.90;;;;;;5116614;28;20217;-76
2023/05/24 06:39:05;;;;;;;27.17;6.03;;;9.90;99.90;;;;;;5118086;28;20197;-77
2023/05/24 06:41:31;;;;;;;14.60;4.83;;;10.00;99.90;;;;;;5115855;28;20173;-77
2023/05/24 06:43:56;;;;;;;11.07;4.77;;;10.10;99.90;;;;;;5115956;28;20594;-77
2023/05/24 06:46:22;;;;;;;19.73;4.70;;;10.10;99.90;;;;;;5117800;28;20694;-77
2023/05/24 06:48:47;;;;;;;12.53;5.10;;;10.20;99.90;;;;;;5118135;28;20199;-77
2023/05/24 06:51:13;;;;;;;15.60;4.87;;;10.20;99.90;;;;;;5117630;28;20166;-77
2023/05/24 06:53:38;;;;;;;11.67;4.40;;;10.30;99.90;;;;;;5117371;28;20182;-77
2023/05/24 06:56:04;;;;;;;17.67;5.60;;;10.30;99.90;;;;;;5115859;28;20271;-77
2023/05/24 06:58:29;;;;;;;20.47;5.57;;;10.40;99.90;;;;;;5118104;28;20331;-77
2023/05/24 07:00:55;;;;;;;15.53;5.73;;;10.40;99.90;;;;;;5117783;28;20201;-76
2023/05/24 07:03:20;;;;;;;20.83;6.67;;;10.50;99.90;;;;;;5116801;28;20177;-77
2023/05/24 07:05:46;;;;;;;18.47;6.33;;;10.60;99.90;;;;;;5122467;28;20189;-79
2023/05/24 07:08:11;;;;;;;21.03;7.73;;;10.60;99.90;;;;;;5123911;28;20169;-79
2023/05/24 07:10:37;;;;;;;19.93;7.07;;;10.70;99.90;;;;;;5123866;28;20518;-77
2023/05/24 07:13:03;;;;;;;20.10;6.40;;;10.80;99.90;;;;;;5116982;28;20257;-77
2023/05/24 07:15:29;;;;;;;20.70;7.37;;;10.80;99.90;;;;;;5115787;28;20622;-77
2023/05/24 07:17:55;;;;;;;20.13;6.53;;;10.80;99.90;;;;;;5115971;28;20526;-77
2023/05/24 07:20:20;;;;;;;19.67;6.57;;;10.80;99.90;;;;;;5114016;28;20331;-77
2023/05/24 07:22:46;;;;;;;25.13;7.50;;;10.90;99.90;;;;;;5114152;28;20284;-77
2023/05/24 07:25:11;;;;;;;28.23;7.10;;;10.80;99.90;;;;;;5115473;28;20272;-77
2023/05/24 07:27:37;;;;;;;19.47;6.10;;;10.80;99.90;;;;;;5115582;28;20166;-77
2023/05/24 07:30:03;;;;;;;22.60;6.40;;;10.80;94.10;;;;;;5114347;28;20178;-77
2023/05/24 07:32:29;;;;;;;22.50;7.13;;;10.90;99.90;;;;;;5114227;28;20602;-77
2023/05/24 07:34:54;;;;;;;17.03;6.57;;;10.90;93.50;;;;;;5115037;28;20181;-77
2023/05/24 07:37:22;;;;;;;21.40;6.83;;;10.90;37.40;;;;;;5115400;28;20651;-76
2023/05/24 07:39:49;;;;;;;19.57;6.53;;;10.90;46.80;;;;;;5115423;28;20539;-76
2023/05/24 07:42:14;;;;;;;21.67;6.60;;;11.00;99.90;;;;;;5113800;28;20174;-76
2023/05/24 07:44:41;;;;;;;16.73;5.03;;;11.10;99.90;;;;;;5114737;28;20591;-77
2023/05/24 07:47:06;;;;;;;22.03;5.73;;;11.10;99.90;;;;;;5112804;28;20279;-77
2023/05/24 07:49:32;;;;;;;13.67;4.57;;;11.10;1.00;;;;;;5115456;28;20211;-77
2023/05/24 07:51:58;;;;;;;15.40;5.20;;;11.30;68.50;;;;;;5115694;28;20200;-77
2023/05/24 07:54:24;;;;;;;20.47;6.10;;;11.30;50.10;;;;;;5114970;28;20165;-76
2023/05/24 07:56:49;;;;;;;27.00;6.90;;;11.40;1.00;;;;;;5113980;28;20192;-77
2023/05/24 07:59:15;;;;;;;25.60;7.67;;;11.50;1.00;;;;;;5115305;28;20222;-76
2023/05/24 08:01:41;;;;;;;24.30;7.40;;;11.50;45.50;;;;;;5115378;28;20196;-77
2023/05/24 08:04:08;;;;;;;18.67;7.93;;;11.50;99.90;;;;;;5113936;28;20625;-77
2023/05/24 08:06:34;;;;;;;27.80;8.43;;;11.60;1.00;;;;;;5115488;28;20184;-77
2023/05/24 08:09:03;;;;;;;19.47;8.73;;;11.70;1.00;;;;;;5115437;28;20165;-77
2023/05/24 08:11:29;;;;;;;29.33;9.17;;;11.70;1.00;;;;;;5114933;28;20634;-77
2023/05/24 08:13:55;;;;;;;40.47;12.87;;;11.70;1.00;;;;;;5114749;28;20248;-77
2023/05/24 08:16:21;;;;;;;29.53;8.90;;;11.70;99.90;;;;;;5114074;28;20568;-77
2023/05/24 08:18:46;;;;;;;18.77;7.27;;;11.80;54.40;;;;;;5113619;28;20177;-77
2023/05/24 08:21:12;;;;;;;23.43;8.67;;;11.90;35.10;;;;;;5114878;28;20166;-76
2023/05/24 08:23:37;;;;;;;24.77;8.90;;;11.90;3.40;;;;;;5115353;28;20181;-77
2023/05/24 08:26:03;;;;;;;13.53;6.70;;;12.00;99.90;;;;;;5115496;28;20196;-77
2023/05/24 08:28:28;;;;;;;27.57;8.33;;;12.00;99.90;;;;;;5114182;28;20645;-77
2023/05/24 08:30:54;;;;;;;16.20;6.33;;;12.10;99.90;;;;;;5115101;28;20169;-77
2023/05/24 08:33:21;;;;;;;18.60;6.07;;;12.10;99.90;;;;;;5115596;28;20515;-77
2023/05/24 08:35:48;;;;;;;22.33;7.30;;;12.10;99.90;;;;;;5115464;28;20189;-77
2023/05/24 08:38:13;;;;;;;17.77;5.70;;;12.20;1.00;;;;;;5114629;28;20174;-77
2023/05/24 08:40:39;;;;;;;19.67;5.53;;;12.20;43.50;;;;;;5116602;28;20204;-77
2023/05/24 08:43:10;;;;;;;20.17;5.40;;;12.20;99.90;;;;;;5115954;28;20550;-77
2023/05/24 08:45:37;;;;;;;19.70;5.50;;;12.20;99.90;;;;;;5114856;28;20185;-77
2023/05/24 08:48:06;;;;;;;17.87;5.47;;;12.30;99.90;;;;;;5114563;28;20193;-77
2023/05/24 08:50:33;;;;;;;19.47;5.07;;;12.30;1.00;;;;;;5115710;28;20178;-77
2023/05/24 08:53:02;;;;;;;18.67;5.57;;;12.30;1.00;;;;;;5115080;28;20177;-76
2023/05/24 08:55:32;;;;;;;14.10;5.43;;;12.30;19.40;;;;;;5114736;28;20263;-77
2023/05/24 08:57:59;;;;;;;18.17;5.20;;;12.40;99.90;;;;;;5114904;28;20591;-77
2023/05/24 09:00:25;;;;;;;13.23;4.57;;;12.50;99.90;;;;;;5114899;28;20197;-77
2023/05/24 09:02:51;;;;;;;10.70;3.93;;;12.60;99.90;;;;;;5114639;28;20269;-77
2023/05/24 09:05:20;;;;;;;14.40;4.23;;;12.70;99.90;;;;;;5113479;28;20201;-77
2023/05/24 09:07:47;;;;;;;14.73;3.90;;;12.80;99.90;;;;;;5113533;28;20268;-77
2023/05/24 09:10:14;;;;;;;12.30;3.83;;;12.90;99.90;;;;;;5114639;28;20192;-77
2023/05/24 09:12:44;;;;;;;18.47;4.07;;;13.00;31.30;;;;;;5116049;28;20205;-77
2023/05/24 09:15:10;;;;;;;19.17;5.17;;;13.00;74.20;;;;;;5115151;28;20189;-77
2023/05/24 09:17:37;;;;;;;14.07;5.00;;;13.10;99.90;;;;;;5105415;28;20595;-77
2023/05/24 09:20:09;;;;;;;16.73;4.60;;;13.20;99.90;;;;;;5100672;28;20289;-77
2023/05/24 09:22:37;;;;;;;16.10;4.40;;;13.20;1.00;;;;;;5104953;28;20336;-77
2023/05/24 09:25:04;;;;;;;12.67;3.77;;;13.20;99.90;;;;;;5099701;28;20190;-77
2023/05/24 09:27:33;;;;;;;16.40;5.10;;;13.20;99.90;;;;;;5102258;28;20205;-77
2023/05/24 09:29:58;;;;;;;12.60;4.67;;;13.30;99.90;;;;;;5111813;28;20169;-77
2023/05/24 09:32:24;;;;;;;16.70;5.67;;;13.40;99.90;;;;;;5115513;28;20650;-77
2023/05/24 09:34:54;;;;;;;12.17;4.90;;;13.40;99.90;;;;;;5114809;28;20588;-77
2023/05/24 09:37:26;;;;;;;11.80;4.23;;;13.50;99.90;;;;;;5113958;28;20177;-77
2023/05/24 09:39:52;;;;;;;13.80;4.67;;;13.50;99.90;;;;;;5113618;28;20573;-77
2023/05/24 09:42:26;;;;;;;16.13;5.60;;;13.50;99.90;;;;;;5097072;28;20186;-78
2023/05/24 09:45:01;;;;;;;17.33;4.30;;;13.50;99.90;;;;;;5095056;28;20253;-77
2023/05/24 09:47:34;;;;;;;15.63;4.67;;;13.50;99.90;;;;;;5093919;28;20176;-77
2023/05/24 09:50:05;;;;;;;12.97;4.40;;;13.50;99.90;;;;;;5093911;28;20262;-77
2023/05/24 09:52:34;;;;;;;15.03;3.60;;;13.50;99.90;;;;;;5093578;28;20184;-77
2023/05/24 09:55:11;;;;;;;16.17;3.77;;;13.50;99.90;;;;;;5093026;28;20202;-77
2023/05/24 09:57:37;;;;;;;14.67;4.20;;;13.70;99.90;;;;;;5094732;28;20155;-77
2023/05/24 10:00:13;;;;;;;13.17;4.43;;;13.80;48.00;;;;;;5092703;28;20531;-76
2023/05/24 10:02:38;;;;;;;13.33;3.20;;;14.10;99.90;;;;;;5094632;28;20146;-78
2023/05/24 10:05:04;;;;;;;10.40;3.37;;;14.30;1.00;;;;;;5094458;28;20232;-78
2023/05/24 10:07:33;;;;;;;10.23;2.97;;;14.40;1.00;;;;;;5093251;28;20177;-78
2023/05/24 10:09:59;;;;;;;16.93;4.57;;;14.50;1.00;;;;;;5092611;28;20170;-77
2023/05/24 10:12:25;;;;;;;13.60;4.07;;;14.40;1.00;;;;;;5097146;28;20185;-78
2023/05/24 10:14:52;;;;;;;13.70;3.80;;;14.40;1.00;;;;;;5098358;28;20194;-78
2023/05/24 10:17:17;;;;;;;12.00;4.00;;;14.50;1.00;;;;;;5098287;28;20185;-78
2023/05/24 10:19:43;;;;;;;15.93;3.43;;;14.50;1.00;;;;;;5097001;28;20209;-78
2023/05/24 10:22:11;;;;;;;11.47;3.63;;;14.50;1.00;;;;;;5098708;28;20268;-78
2023/05/24 10:24:44;;;;;;;16.33;3.90;;;14.40;1.00;;;;;;5099016;28;20285;-78
2023/05/24 10:27:14;;;;;;;13.00;3.50;;;14.40;1.00;;;;;;5100483;28;20163;-78
2023/05/24 10:29:45;;;;;;;10.77;3.20;;;14.30;1.00;;;;;;5099407;28;20186;-78
2023/05/24 10:32:14;;;;;;;13.47;3.33;;;14.40;1.00;;;;;;5097696;28;20635;-78
2023/05/24 10:34:41;;;;;;;11.20;3.50;;;14.40;1.00;;;;;;5097275;28;20202;-78
2023/05/24 10:37:08;;;;;;;11.53;3.93;;;14.30;1.00;;;;;;5099042;28;20552;-78
2023/05/24 10:39:34;;;;;;;10.03;3.47;;;14.30;1.00;;;;;;5099076;28;20190;-78
2023/05/24 10:42:04;;;;;;;9.93;3.60;;;14.30;1.00;;;;;;5097478;28;20701;-78
2023/05/24 10:44:30;;;;;;;11.63;3.50;;;14.40;1.00;;;;;;5098876;28;20196;-78
2023/05/24 10:47:08;;;;;;;8.03;2.63;;;14.40;1.00;;;;;;5098976;28;20626;-79
2023/05/24 10:49:35;;;;;;;10.27;2.97;;;14.50;1.00;;;;;;5116769;28;20192;-79
2023/05/24 10:52:08;;;;;;;11.07;2.93;;;14.50;1.00;;;;;;5103372;28;20174;-78
2023/05/24 10:54:35;;;;;;;10.17;2.80;;;14.60;1.00;;;;;;5118425;28;20158;-78
2023/05/24 10:57:04;;;;;;;9.87;2.97;;;14.70;1.00;;;;;;5108978;28;20658;-78
2023/05/24 10:59:37;;;;;;;11.57;2.63;;;14.90;1.00;;;;;;5098888;28;20239;-78
2023/05/24 11:02:08;;;;;;;9.37;2.90;;;14.90;99.90;;;;;;5098231;28;20301;-78
2023/05/24 11:04:39;;;;;;;12.53;3.63;;;14.90;1.00;;;;;;5097455;28;20163;-78
2023/05/24 11:07:08;;;;;;;14.37;2.90;;;14.80;1.00;;;;;;5096381;28;20174;-78
2023/05/24 11:09:35;;;;;;;9.47;2.90;;;14.80;1.00;;;;;;5098260;28;20206;-78
2023/05/24 11:12:02;;;;;;;8.60;3.23;;;14.70;1.00;;;;;;5097459;28;20195;-78
2023/05/24 11:14:30;;;;;;;10.97;2.83;;;14.70;1.00;;;;;;5098082;28;20166;-78
2023/05/24 11:16:56;;;;;;;15.70;3.47;;;14.60;1.00;;;;;;5096245;28;20176;-78
2023/05/24 11:19:27;;;;;;;13.50;3.33;;;14.60;1.00;;;;;;5097608;28;20193;-78
2023/05/24 11:21:57;;;;;;;12.70;2.90;;;14.50;1.00;;;;;;5114188;28;20181;-78
2023/05/24 11:24:24;;;;;;;12.63;3.17;;;14.50;1.00;;;;;;5117446;28;20650;-79
2023/05/24 11:26:50;;;;;;;9.10;3.13;;;14.40;64.20;;;;;;5117340;28;20172;-78
2023/05/24 11:29:17;;;;;;;9.20;2.50;;;14.30;1.00;;;;;;5111443;28;20175;-78
2023/05/24 11:32:03;;;;;;;8.20;2.93;;;14.30;41.50;;;;;;5097449;28;20547;-78
2023/05/24 11:34:30;;;;;;;10.17;2.70;;;14.20;1.00;;;;;;5095509;28;20167;-78
2023/05/24 11:36:57;;;;;;;11.83;2.83;;;14.20;1.00;;;;;;5096493;28;20166;-78
2023/05/24 11:39:24;;;;;;;5.90;2.73;;;14.10;1.00;;;;;;5101360;28;20209;-78
2023/05/24 11:41:53;;;;;;;13.07;2.83;;;14.10;1.00;;;;;;5115371;28;20181;-78
2023/05/24 11:44:18;;;;;;;12.63;3.10;;;14.10;1.00;;;;;;5096506;28;20178;-79
2023/05/24 11:46:44;;;;;;;6.80;2.43;;;14.10;20.70;;;;;;5094981;28;20227;-78
2023/05/24 11:49:16;;;;;;;12.83;3.10;;;14.10;1.00;;;;;;5096389;28;20256;-78
2023/05/24 11:51:42;;;;;;;10.50;2.60;;;14.20;1.00;;;;;;5094937;28;20170;-78
2023/05/24 11:54:08;;;;;;;13.07;2.87;;;14.20;1.00;;;;;;5115676;28;20173;-78
2023/05/24 11:56:34;;;;;;;9.63;2.80;;;14.30;13.20;;;;;;5115078;28;20194;-78
2023/05/24 11:59:14;;;;;;;10.43;2.93;;;14.30;1.00;;;;;;5114809;28;20178;-79
2023/05/24 12:01:40;;;;;;;11.30;2.87;;;14.50;1.00;;;;;;5114302;28;20206;-79
2023/05/24 12:04:10;;;;;;;9.50;2.87;;;14.60;1.00;;;;;;5094714;28;20237;-78
2023/05/24 12:06:37;;;;;;;7.37;2.33;;;14.70;1.00;;;;;;5095929;28;20204;-78
2023/05/24 12:09:06;;;;;;;8.10;2.60;;;14.80;7.30;;;;;;5094684;28;20170;-78
2023/05/24 12:11:32;;;;;;;8.50;2.70;;;15.00;1.00;;;;;;5096046;28;20220;-78
2023/05/24 12:13:58;;;;;;;12.13;2.97;;;15.10;1.00;;;;;;5113570;28;20170;-80
2023/05/24 12:16:25;;;;;;;7.77;2.60;;;15.20;1.00;;;;;;5115830;28;20194;-80
2023/05/24 12:18:51;;;;;;;11.40;2.57;;;15.30;1.00;;;;;;5116579;28;20177;-80
2023/05/24 12:21:19;;;;;;;10.37;2.83;;;15.40;1.00;;;;;;5108787;28;20191;-78
2023/05/24 12:23:46;;;;;;;9.47;3.07;;;15.50;1.00;;;;;;5096555;28;20694;-78
2023/05/24 12:26:12;;;;;;;7.77;2.77;;;15.50;1.00;;;;;;5095956;28;20189;-78
2023/05/24 12:28:38;;;;;;;7.10;2.20;;;15.60;1.00;;;;;;5095645;28;20246;-78
2023/05/24 12:31:05;;;;;;;10.53;3.00;;;15.60;1.00;;;;;;5095195;28;20655;-77
2023/05/24 12:33:31;;;;;;;9.80;2.90;;;15.70;1.00;;;;;;5093669;28;20232;-77
2023/05/24 12:35:57;;;;;;;12.33;2.83;;;15.80;1.00;;;;;;5093641;28;20294;-77
2023/05/24 12:38:24;;;;;;;14.13;2.80;;;15.90;1.00;;;;;;5095055;28;20205;-78
2023/05/24 12:40:51;;;;;;;11.60;2.73;;;15.90;1.00;;;;;;5094638;28;20678;-78
2023/05/24 12:43:19;;;;;;;10.23;2.60;;;15.90;1.00;;;;;;5094987;28;20218;-78
2023/05/24 12:45:45;;;;;;;8.60;3.03;;;15.90;1.00;;;;;;5096115;28;20219;-80
2023/05/24 12:48:11;;;;;;;13.23;3.47;;;15.80;1.00;;;;;;5094679;28;20186;-77